sensor_id;sensor_type;location;lat;lon;timestamp;P1;durP1;ratioP1;P2;durP2;ratioP2
7523;SDS011;3803;51.666;7.630;2023-11-19T00:00:05;1.70;;;1.33;;
7523;SDS011;3803;51.666;7.630;2023-11-19T00:00:31;2.00;;;1.40;;
7523;SDS011;3803;51.666;7.630;2023-11-19T00:00:52;2.20;;;1.55;;
7523;SDS011;3803;51.666;7.630;2023-11-19T00:01:13;1.95;;;1.60;;
7523;SDS011;3803;51.666;7.630;2023-11-19T00:01:34;1.90;;;1.60;;
7523;SDS011;3803;51.666;7.630;2023-11-19T00:01:55;2.40;;;1.40;;
7523;SDS011;3803;51.666;7.630;2023-11-19T00:02:16;2.90;;;1.40;;
7523;SDS011;3803;51.666;7.630;2023-11-19T00:02:38;2.50;;;1.50;;
7523;SDS011;3803;51.666;7.630;2023-11-19T00:02:59;2.78;;;1.60;;
7523;SDS011;3803;51.666;7.630;2023-11-19T00:03:20;2.65;;;1.60;;
7523;SDS011;3803;51.666;7.630;2023-11-19T00:03:41;2.22;;;1.50;;
7523;SDS011;3803;51.666;7.630;2023-11-19T00:04:44;1.55;;;1.30;;
7523;SDS011;3803;51.666;7.630;2023-11-19T00:05:05;1.70;;;1.40;;
7523;SDS011;3803;51.666;7.630;2023-11-19T00:05:29;1.75;;;1.45;;
7523;SDS011;3803;51.666;7.630;2023-11-19T00:05:50;1.70;;;1.50;;
7523;SDS011;3803;51.666;7.630;2023-11-19T00:06:10;2.05;;;1.70;;
7523;SDS011;3803;51.666;7.630;2023-11-19T00:06:31;1.73;;;1.50;;
7523;SDS011;3803;51.666;7.630;2023-11-19T00:06:52;2.13;;;1.50;;
7523;SDS011;3803;51.666;7.630;2023-11-19T00:07:13;2.00;;;1.30;;
7523;SDS011;3803;51.666;7.630;2023-11-19T00:09:15;1.52;;;1.20;;
7523;SDS011;3803;51.666;7.630;2023-11-19T00:09:38;1.85;;;1.23;;
7523;SDS011;3803;51.666;7.630;2023-11-19T00:09:59;2.50;;;1.50;;
7523;SDS011;3803;51.666;7.630;2023-11-19T00:10:29;2.25;;;1.55;;
7523;SDS011;3803;51.666;7.630;2023-11-19T00:10:51;2.50;;;1.70;;
7523;SDS011;3803;51.666;7.630;2023-11-19T00:11:12;1.80;;;1.45;;
7523;SDS011;3803;51.666;7.630;2023-11-19T00:11:35;1.75;;;1.50;;
7523;SDS011;3803;51.666;7.630;2023-11-19T00:11:56;4.00;;;1.70;;
7523;SDS011;3803;51.666;7.630;2023-11-19T00:12:18;4.28;;;1.70;;
7523;SDS011;3803;51.666;7.630;2023-11-19T00:16:34;2.47;;;1.80;;
7523;SDS011;3803;51.666;7.630;2023-11-19T00:16:55;2.88;;;1.70;;
7523;SDS011;3803;51.666;7.630;2023-11-19T00:17:15;2.70;;;1.52;;
7523;SDS011;3803;51.666;7.630;2023-11-19T00:17:39;2.88;;;1.40;;
7523;SDS011;3803;51.666;7.630;2023-11-19T00:18:06;3.40;;;1.50;;
7523;SDS011;3803;51.666;7.630;2023-11-19T00:18:26;3.53;;;1.50;;
7523;SDS011;3803;51.666;7.630;2023-11-19T00:18:47;3.13;;;1.50;;
7523;SDS011;3803;51.666;7.630;2023-11-19T00:19:08;2.00;;;1.50;;
7523;SDS011;3803;51.666;7.630;2023-11-19T00:19:29;1.67;;;1.50;;
7523;SDS011;3803;51.666;7.630;2023-11-19T00:19:49;2.00;;;1.52;;
7523;SDS011;3803;51.666;7.630;2023-11-19T00:20:14;2.10;;;1.42;;
7523;SDS011;3803;51.666;7.630;2023-11-19T00:20:36;1.92;;;1.40;;
7523;SDS011;3803;51.666;7.630;2023-11-19T00:20:57;1.50;;;1.35;;
7523;SDS011;3803;51.666;7.630;2023-11-19T00:21:18;2.28;;;1.48;;
7523;SDS011;3803;51.666;7.630;2023-11-19T00:21:38;2.80;;;1.70;;
7523;SDS011;3803;51.666;7.630;2023-11-19T00:22:00;3.70;;;1.80;;
7523;SDS011;3803;51.666;7.630;2023-11-19T00:22:24;3.10;;;1.73;;
7523;SDS011;3803;51.666;7.630;2023-11-19T00:22:46;3.95;;;1.70;;
7523;SDS011;3803;51.666;7.630;2023-11-19T00:23:11;3.10;;;1.58;;
7523;SDS011;3803;51.666;7.630;2023-11-19T00:23:32;2.77;;;1.30;;
7523;SDS011;3803;51.666;7.630;2023-11-19T00:23:52;1.60;;;1.30;;
7523;SDS011;3803;51.666;7.630;2023-11-19T00:24:13;1.60;;;1.30;;
7523;SDS011;3803;51.666;7.630;2023-11-19T00:24:36;2.00;;;1.50;;
7523;SDS011;3803;51.666;7.630;2023-11-19T00:24:57;3.08;;;1.58;;
7523;SDS011;3803;51.666;7.630;2023-11-19T00:25:18;3.20;;;1.60;;
7523;SDS011;3803;51.666;7.630;2023-11-19T00:25:40;3.15;;;1.60;;
7523;SDS011;3803;51.666;7.630;2023-11-19T00:26:00;2.53;;;1.50;;
7523;SDS011;3803;51.666;7.630;2023-11-19T00:26:21;2.50;;;1.57;;
7523;SDS011;3803;51.666;7.630;2023-11-19T00:26:46;2.30;;;1.50;;
7523;SDS011;3803;51.666;7.630;2023-11-19T00:27:10;2.55;;;1.60;;
7523;SDS011;3803;51.666;7.630;2023-11-19T00:27:31;2.63;;;1.60;;
7523;SDS011;3803;51.666;7.630;2023-11-19T00:27:52;2.47;;;1.60;;
7523;SDS011;3803;51.666;7.630;2023-11-19T00:28:13;1.75;;;1.45;;
7523;SDS011;3803;51.666;7.630;2023-11-19T00:28:34;3.40;;;1.57;;
7523;SDS011;3803;51.666;7.630;2023-11-19T00:28:58;3.50;;;1.52;;
7523;SDS011;3803;51.666;7.630;2023-11-19T00:29:19;3.88;;;1.60;;
7523;SDS011;3803;51.666;7.630;2023-11-19T00:29:41;2.03;;;1.50;;
7523;SDS011;3803;51.666;7.630;2023-11-19T00:30:03;2.28;;;1.50;;
7523;SDS011;3803;51.666;7.630;2023-11-19T00:30:25;1.80;;;1.30;;
7523;SDS011;3803;51.666;7.630;2023-11-19T00:30:47;2.40;;;1.33;;
7523;SDS011;3803;51.666;7.630;2023-11-19T00:31:08;2.60;;;1.50;;
7523;SDS011;3803;51.666;7.630;2023-11-19T00:31:29;2.90;;;1.70;;
7523;SDS011;3803;51.666;7.630;2023-11-19T00:31:51;2.40;;;1.70;;
7523;SDS011;3803;51.666;7.630;2023-11-19T00:32:12;3.67;;;1.88;;
7523;SDS011;3803;51.666;7.630;2023-11-19T00:32:33;3.83;;;1.88;;
7523;SDS011;3803;51.666;7.630;2023-11-19T00:32:54;4.03;;;1.80;;
7523;SDS011;3803;51.666;7.630;2023-11-19T00:33:15;2.15;;;1.52;;
7523;SDS011;3803;51.666;7.630;2023-11-19T00:33:35;2.07;;;1.50;;
7523;SDS011;3803;51.666;7.630;2023-11-19T00:33:58;2.20;;;1.50;;
7523;SDS011;3803;51.666;7.630;2023-11-19T00:34:19;2.30;;;1.55;;
7523;SDS011;3803;51.666;7.630;2023-11-19T00:34:43;1.80;;;1.38;;
7523;SDS011;3803;51.666;7.630;2023-11-19T00:35:05;1.48;;;1.20;;
7523;SDS011;3803;51.666;7.630;2023-11-19T00:35:27;1.40;;;1.20;;
7523;SDS011;3803;51.666;7.630;2023-11-19T00:35:48;1.60;;;1.20;;
7523;SDS011;3803;51.666;7.630;2023-11-19T00:36:09;2.00;;;1.40;;
7523;SDS011;3803;51.666;7.630;2023-11-19T00:36:29;3.70;;;1.30;;
7523;SDS011;3803;51.666;7.630;2023-11-19T00:36:50;3.77;;;1.30;;
7523;SDS011;3803;51.666;7.630;2023-11-19T00:37:11;3.40;;;1.20;;
7523;SDS011;3803;51.666;7.630;2023-11-19T00:37:32;1.55;;;1.20;;
7523;SDS011;3803;51.666;7.630;2023-11-19T00:37:53;1.58;;;1.27;;
7523;SDS011;3803;51.666;7.630;2023-11-19T00:38:14;1.92;;;1.33;;
7523;SDS011;3803;51.666;7.630;2023-11-19T00:38:35;2.40;;;1.38;;
7523;SDS011;3803;51.666;7.630;2023-11-19T00:38:56;2.10;;;1.20;;
7523;SDS011;3803;51.666;7.630;2023-11-19T00:39:17;2.10;;;1.20;;
7523;SDS011;3803;51.666;7.630;2023-11-19T00:39:38;3.17;;;1.27;;
7523;SDS011;3803;51.666;7.630;2023-11-19T00:39:58;3.30;;;1.40;;
7523;SDS011;3803;51.666;7.630;2023-11-19T00:40:19;3.20;;;1.40;;
7523;SDS011;3803;51.666;7.630;2023-11-19T00:40:43;1.45;;;1.10;;
7523;SDS011;3803;51.666;7.630;2023-11-19T00:41:04;1.75;;;1.10;;
7523;SDS011;3803;51.666;7.630;2023-11-19T00:41:25;1.70;;;1.02;;
7523;SDS011;3803;51.666;7.630;2023-11-19T00:41:46;2.20;;;1.15;;
7523;SDS011;3803;51.666;7.630;2023-11-19T00:42:07;1.70;;;1.00;;
7523;SDS011;3803;51.666;7.630;2023-11-19T00:42:28;1.80;;;1.17;;
7523;SDS011;3803;51.666;7.630;2023-11-19T00:42:48;1.70;;;1.30;;
7523;SDS011;3803;51.666;7.630;2023-11-19T00:43:09;1.90;;;1.50;;
7523;SDS011;3803;51.666;7.630;2023-11-19T00:43:30;2.00;;;1.40;;
7523;SDS011;3803;51.666;7.630;2023-11-19T00:43:51;1.75;;;1.30;;
7523;SDS011;3803;51.666;7.630;2023-11-19T00:44:12;1.70;;;1.20;;
7523;SDS011;3803;51.666;7.630;2023-11-19T00:44:32;1.50;;;1.15;;
7523;SDS011;3803;51.666;7.630;2023-11-19T00:44:53;1.73;;;1.33;;
7523;SDS011;3803;51.666;7.630;2023-11-19T00:45:14;1.90;;;1.60;;
7523;SDS011;3803;51.666;7.630;2023-11-19T00:45:34;2.33;;;1.80;;
7523;SDS011;3803;51.666;7.630;2023-11-19T00:45:55;2.05;;;1.45;;
7523;SDS011;3803;51.666;7.630;2023-11-19T00:46:16;1.63;;;1.23;;
7523;SDS011;3803;51.666;7.630;2023-11-19T00:46:38;1.48;;;1.20;;
7523;SDS011;3803;51.666;7.630;2023-11-19T00:46:59;1.83;;;1.30;;
7523;SDS011;3803;51.666;7.630;2023-11-19T00:47:20;2.10;;;1.40;;
7523;SDS011;3803;51.666;7.630;2023-11-19T00:47:41;2.20;;;1.40;;
7523;SDS011;3803;51.666;7.630;2023-11-19T00:48:01;2.10;;;1.40;;
7523;SDS011;3803;51.666;7.630;2023-11-19T00:48:22;2.88;;;1.40;;
7523;SDS011;3803;51.666;7.630;2023-11-19T00:48:43;2.30;;;1.23;;
7523;SDS011;3803;51.666;7.630;2023-11-19T00:49:04;1.95;;;1.15;;
7523;SDS011;3803;51.666;7.630;2023-11-19T00:49:25;5.40;;;1.20;;
7523;SDS011;3803;51.666;7.630;2023-11-19T00:49:49;7.57;;;1.50;;
7523;SDS011;3803;51.666;7.630;2023-11-19T00:50:10;7.72;;;1.55;;
7523;SDS011;3803;51.666;7.630;2023-11-19T00:50:31;3.10;;;1.60;;
7523;SDS011;3803;51.666;7.630;2023-11-19T00:50:52;1.90;;;1.40;;
7523;SDS011;3803;51.666;7.630;2023-11-19T00:51:13;1.60;;;1.27;;
7523;SDS011;3803;51.666;7.630;2023-11-19T00:51:34;1.50;;;1.17;;
7523;SDS011;3803;51.666;7.630;2023-11-19T00:51:55;1.87;;;1.10;;
7523;SDS011;3803;51.666;7.630;2023-11-19T00:52:16;1.80;;;1.17;;
7523;SDS011;3803;51.666;7.630;2023-11-19T00:52:38;2.10;;;1.20;;
7523;SDS011;3803;51.666;7.630;2023-11-19T00:56:45;2.58;;;1.30;;
7523;SDS011;3803;51.666;7.630;2023-11-19T00:57:06;2.00;;;1.27;;
7523;SDS011;3803;51.666;7.630;2023-11-19T00:57:28;2.38;;;1.20;;
7523;SDS011;3803;51.666;7.630;2023-11-19T01:00:39;1.90;;;1.58;;
7523;SDS011;3803;51.666;7.630;2023-11-19T01:01:00;2.05;;;1.70;;
7523;SDS011;3803;51.666;7.630;2023-11-19T01:01:20;2.30;;;1.70;;
7523;SDS011;3803;51.666;7.630;2023-11-19T01:01:42;1.80;;;1.40;;
7523;SDS011;3803;51.666;7.630;2023-11-19T01:02:02;2.13;;;1.40;;
7523;SDS011;3803;51.666;7.630;2023-11-19T01:02:25;1.90;;;1.20;;
7523;SDS011;3803;51.666;7.630;2023-11-19T01:02:45;2.10;;;1.33;;
7523;SDS011;3803;51.666;7.630;2023-11-19T01:03:06;1.58;;;1.20;;
7523;SDS011;3803;51.666;7.630;2023-11-19T01:03:27;1.45;;;1.30;;
7523;SDS011;3803;51.666;7.630;2023-11-19T01:03:48;1.58;;;1.30;;
7523;SDS011;3803;51.666;7.630;2023-11-19T01:04:09;2.15;;;1.48;;
7523;SDS011;3803;51.666;7.630;2023-11-19T01:04:34;2.90;;;1.75;;
7523;SDS011;3803;51.666;7.630;2023-11-19T01:04:55;2.80;;;1.80;;
7523;SDS011;3803;51.666;7.630;2023-11-19T01:05:16;2.00;;;1.50;;
7523;SDS011;3803;51.666;7.630;2023-11-19T01:05:43;1.92;;;1.55;;
7523;SDS011;3803;51.666;7.630;2023-11-19T01:06:04;2.90;;;1.80;;
7523;SDS011;3803;51.666;7.630;2023-11-19T01:06:32;3.30;;;1.98;;
7523;SDS011;3803;51.666;7.630;2023-11-19T01:06:52;3.58;;;1.80;;
7523;SDS011;3803;51.666;7.630;2023-11-19T01:07:14;2.63;;;1.52;;
7523;SDS011;3803;51.666;7.630;2023-11-19T01:07:35;2.00;;;1.40;;
7523;SDS011;3803;51.666;7.630;2023-11-19T01:07:56;2.65;;;1.40;;
7523;SDS011;3803;51.666;7.630;2023-11-19T01:08:17;3.20;;;1.50;;
7523;SDS011;3803;51.666;7.630;2023-11-19T01:08:37;2.47;;;1.50;;
7523;SDS011;3803;51.666;7.630;2023-11-19T01:08:58;2.55;;;1.40;;
7523;SDS011;3803;51.666;7.630;2023-11-19T01:09:19;3.15;;;1.55;;
7523;SDS011;3803;51.666;7.630;2023-11-19T01:09:43;3.40;;;1.60;;
7523;SDS011;3803;51.666;7.630;2023-11-19T01:10:03;2.90;;;1.60;;
7523;SDS011;3803;51.666;7.630;2023-11-19T01:10:25;2.30;;;1.60;;
7523;SDS011;3803;51.666;7.630;2023-11-19T01:10:46;2.30;;;1.60;;
7523;SDS011;3803;51.666;7.630;2023-11-19T01:11:08;2.80;;;1.70;;
7523;SDS011;3803;51.666;7.630;2023-11-19T01:11:29;2.47;;;1.52;;
7523;SDS011;3803;51.666;7.630;2023-11-19T01:11:50;2.20;;;1.50;;
7523;SDS011;3803;51.666;7.630;2023-11-19T01:12:10;1.70;;;1.50;;
7523;SDS011;3803;51.666;7.630;2023-11-19T01:12:31;1.80;;;1.50;;
7523;SDS011;3803;51.666;7.630;2023-11-19T01:12:53;2.10;;;1.73;;
7523;SDS011;3803;51.666;7.630;2023-11-19T01:13:15;3.88;;;1.95;;
7523;SDS011;3803;51.666;7.630;2023-11-19T01:13:36;3.78;;;1.92;;
7523;SDS011;3803;51.666;7.630;2023-11-19T01:13:56;2.88;;;1.63;;
7523;SDS011;3803;51.666;7.630;2023-11-19T01:14:17;1.90;;;1.57;;
7523;SDS011;3803;51.666;7.630;2023-11-19T01:14:38;2.17;;;1.70;;
7523;SDS011;3803;51.666;7.630;2023-11-19T01:14:59;2.30;;;1.80;;
7523;SDS011;3803;51.666;7.630;2023-11-19T01:15:21;2.40;;;1.80;;
7523;SDS011;3803;51.666;7.630;2023-11-19T01:15:43;3.20;;;1.98;;
7523;SDS011;3803;51.666;7.630;2023-11-19T01:16:03;3.00;;;1.80;;
7523;SDS011;3803;51.666;7.630;2023-11-19T01:16:25;3.40;;;1.90;;
7523;SDS011;3803;51.666;7.630;2023-11-19T01:16:46;2.70;;;1.80;;
7523;SDS011;3803;51.666;7.630;2023-11-19T01:17:07;3.03;;;1.92;;
7523;SDS011;3803;51.666;7.630;2023-11-19T01:17:29;3.30;;;2.10;;
7523;SDS011;3803;51.666;7.630;2023-11-19T01:19:04;1.90;;;1.55;;
7523;SDS011;3803;51.666;7.630;2023-11-19T01:19:25;2.60;;;1.67;;
7523;SDS011;3803;51.666;7.630;2023-11-19T01:19:46;3.85;;;1.80;;
7523;SDS011;3803;51.666;7.630;2023-11-19T01:20:06;3.83;;;1.92;;
7523;SDS011;3803;51.666;7.630;2023-11-19T01:20:27;4.78;;;1.90;;
7523;SDS011;3803;51.666;7.630;2023-11-19T01:20:49;4.10;;;1.90;;
7523;SDS011;3803;51.666;7.630;2023-11-19T01:21:09;5.60;;;2.10;;
7523;SDS011;3803;51.666;7.630;2023-11-19T01:21:30;4.28;;;2.20;;
7523;SDS011;3803;51.666;7.630;2023-11-19T01:21:51;4.13;;;2.13;;
7523;SDS011;3803;51.666;7.630;2023-11-19T01:22:12;2.90;;;2.20;;
7523;SDS011;3803;51.666;7.630;2023-11-19T01:22:33;3.10;;;2.30;;
7523;SDS011;3803;51.666;7.630;2023-11-19T01:22:54;3.35;;;2.35;;
7523;SDS011;3803;51.666;7.630;2023-11-19T01:23:15;3.40;;;2.10;;
7523;SDS011;3803;51.666;7.630;2023-11-19T01:24:53;7.70;;;1.92;;
7523;SDS011;3803;51.666;7.630;2023-11-19T01:25:14;5.03;;;2.10;;
7523;SDS011;3803;51.666;7.630;2023-11-19T01:25:35;3.10;;;2.25;;
7523;SDS011;3803;51.666;7.630;2023-11-19T01:25:57;2.95;;;2.30;;
7523;SDS011;3803;51.666;7.630;2023-11-19T01:26:18;3.05;;;2.28;;
7523;SDS011;3803;51.666;7.630;2023-11-19T01:26:39;2.83;;;2.10;;
7523;SDS011;3803;51.666;7.630;2023-11-19T01:27:05;3.03;;;2.28;;
7523;SDS011;3803;51.666;7.630;2023-11-19T01:27:26;3.92;;;2.60;;
7523;SDS011;3803;51.666;7.630;2023-11-19T01:27:46;4.13;;;2.60;;
7523;SDS011;3803;51.666;7.630;2023-11-19T01:28:07;4.30;;;2.63;;
7523;SDS011;3803;51.666;7.630;2023-11-19T01:28:28;3.22;;;2.30;;
7523;SDS011;3803;51.666;7.630;2023-11-19T01:28:48;3.75;;;2.40;;
7523;SDS011;3803;51.666;7.630;2023-11-19T01:29:09;3.97;;;2.47;;
7523;SDS011;3803;51.666;7.630;2023-11-19T01:29:30;4.32;;;2.60;;
7523;SDS011;3803;51.666;7.630;2023-11-19T01:29:50;4.25;;;2.53;;
7523;SDS011;3803;51.666;7.630;2023-11-19T01:30:11;3.67;;;2.40;;
7523;SDS011;3803;51.666;7.630;2023-11-19T01:30:35;3.55;;;2.40;;
7523;SDS011;3803;51.666;7.630;2023-11-19T01:30:56;2.83;;;2.27;;
7523;SDS011;3803;51.666;7.630;2023-11-19T01:31:17;2.95;;;2.20;;
7523;SDS011;3803;51.666;7.630;2023-11-19T01:31:37;3.67;;;2.50;;
7523;SDS011;3803;51.666;7.630;2023-11-19T01:31:58;3.97;;;2.80;;
7523;SDS011;3803;51.666;7.630;2023-11-19T01:32:19;3.60;;;2.70;;
7523;SDS011;3803;51.666;7.630;2023-11-19T01:32:39;2.73;;;2.50;;
7523;SDS011;3803;51.666;7.630;2023-11-19T01:33:00;2.65;;;2.42;;
7523;SDS011;3803;51.666;7.630;2023-11-19T01:33:21;5.72;;;2.80;;
7523;SDS011;3803;51.666;7.630;2023-11-19T01:33:42;6.30;;;2.72;;
7523;SDS011;3803;51.666;7.630;2023-11-19T01:34:02;5.47;;;2.67;;
7523;SDS011;3803;51.666;7.630;2023-11-19T01:34:23;3.83;;;2.67;;
7523;SDS011;3803;51.666;7.630;2023-11-19T01:34:44;4.03;;;3.05;;
7523;SDS011;3803;51.666;7.630;2023-11-19T01:35:05;4.30;;;3.10;;
7523;SDS011;3803;51.666;7.630;2023-11-19T01:35:26;4.13;;;2.75;;
7523;SDS011;3803;51.666;7.630;2023-11-19T01:35:47;3.70;;;2.60;;
7523;SDS011;3803;51.666;7.630;2023-11-19T01:36:08;3.70;;;2.67;;
7523;SDS011;3803;51.666;7.630;2023-11-19T01:36:29;3.33;;;2.63;;
7523;SDS011;3803;51.666;7.630;2023-11-19T01:36:50;3.40;;;2.77;;
7523;SDS011;3803;51.666;7.630;2023-11-19T01:37:11;3.20;;;2.80;;
7523;SDS011;3803;51.666;7.630;2023-11-19T01:37:34;4.00;;;3.30;;
7523;SDS011;3803;51.666;7.630;2023-11-19T01:37:56;4.57;;;3.25;;
7523;SDS011;3803;51.666;7.630;2023-11-19T01:38:17;4.90;;;3.33;;
7523;SDS011;3803;51.666;7.630;2023-11-19T01:38:37;4.38;;;3.10;;
7523;SDS011;3803;51.666;7.630;2023-11-19T01:38:58;3.60;;;3.00;;
7523;SDS011;3803;51.666;7.630;2023-11-19T01:39:20;3.58;;;2.80;;
7523;SDS011;3803;51.666;7.630;2023-11-19T01:39:44;2.92;;;2.50;;
7523;SDS011;3803;51.666;7.630;2023-11-19T01:40:05;4.13;;;2.50;;
7523;SDS011;3803;51.666;7.630;2023-11-19T01:40:28;5.28;;;2.78;;
7523;SDS011;3803;51.666;7.630;2023-11-19T01:40:49;5.90;;;3.00;;
7523;SDS011;3803;51.666;7.630;2023-11-19T01:41:10;5.80;;;3.17;;
7523;SDS011;3803;51.666;7.630;2023-11-19T01:41:34;5.15;;;3.15;;
7523;SDS011;3803;51.666;7.630;2023-11-19T01:41:56;3.58;;;2.95;;
7523;SDS011;3803;51.666;7.630;2023-11-19T01:42:17;6.00;;;3.10;;
7523;SDS011;3803;51.666;7.630;2023-11-19T01:42:38;6.20;;;2.95;;
7523;SDS011;3803;51.666;7.630;2023-11-19T01:42:59;6.18;;;3.08;;
7523;SDS011;3803;51.666;7.630;2023-11-19T01:43:33;4.00;;;2.87;;
7523;SDS011;3803;51.666;7.630;2023-11-19T01:43:55;5.07;;;3.45;;
7523;SDS011;3803;51.666;7.630;2023-11-19T01:44:15;5.95;;;3.53;;
7523;SDS011;3803;51.666;7.630;2023-11-19T01:44:36;5.90;;;3.33;;
7523;SDS011;3803;51.666;7.630;2023-11-19T01:45:00;5.20;;;3.10;;
7523;SDS011;3803;51.666;7.630;2023-11-19T01:45:27;4.22;;;3.10;;
7523;SDS011;3803;51.666;7.630;2023-11-19T01:45:49;3.70;;;3.30;;
7523;SDS011;3803;51.666;7.630;2023-11-19T01:46:11;3.53;;;3.20;;
7523;SDS011;3803;51.666;7.630;2023-11-19T01:46:32;3.78;;;3.00;;
7523;SDS011;3803;51.666;7.630;2023-11-19T01:46:53;4.00;;;2.95;;
7523;SDS011;3803;51.666;7.630;2023-11-19T01:47:14;4.30;;;3.10;;
7523;SDS011;3803;51.666;7.630;2023-11-19T01:47:35;5.15;;;3.40;;
7523;SDS011;3803;51.666;7.630;2023-11-19T01:47:57;5.10;;;3.40;;
7523;SDS011;3803;51.666;7.630;2023-11-19T01:48:19;4.80;;;3.30;;
7523;SDS011;3803;51.666;7.630;2023-11-19T01:48:41;3.93;;;3.13;;
7523;SDS011;3803;51.666;7.630;2023-11-19T01:49:06;4.30;;;3.20;;
7523;SDS011;3803;51.666;7.630;2023-11-19T01:49:28;4.18;;;3.25;;
7523;SDS011;3803;51.666;7.630;2023-11-19T01:49:49;4.28;;;3.38;;
7523;SDS011;3803;51.666;7.630;2023-11-19T01:50:12;3.78;;;3.30;;
7523;SDS011;3803;51.666;7.630;2023-11-19T01:50:32;4.20;;;3.15;;
7523;SDS011;3803;51.666;7.630;2023-11-19T01:50:53;4.13;;;3.08;;
7523;SDS011;3803;51.666;7.630;2023-11-19T01:51:15;4.25;;;3.03;;
7523;SDS011;3803;51.666;7.630;2023-11-19T01:51:37;3.65;;;3.10;;
7523;SDS011;3803;51.666;7.630;2023-11-19T01:51:59;3.80;;;3.20;;
7523;SDS011;3803;51.666;7.630;2023-11-19T01:52:20;3.65;;;3.13;;
7523;SDS011;3803;51.666;7.630;2023-11-19T01:52:41;4.65;;;3.50;;
7523;SDS011;3803;51.666;7.630;2023-11-19T01:53:02;4.93;;;3.67;;
7523;SDS011;3803;51.666;7.630;2023-11-19T01:53:23;4.97;;;3.60;;
7523;SDS011;3803;51.666;7.630;2023-11-19T01:53:44;3.90;;;3.28;;
7523;SDS011;3803;51.666;7.630;2023-11-19T01:54:05;3.80;;;3.25;;
7523;SDS011;3803;51.666;7.630;2023-11-19T01:54:27;5.35;;;3.40;;
7523;SDS011;3803;51.666;7.630;2023-11-19T01:54:48;5.60;;;3.50;;
7523;SDS011;3803;51.666;7.630;2023-11-19T01:55:10;5.07;;;3.10;;
7523;SDS011;3803;51.666;7.630;2023-11-19T01:55:32;3.55;;;2.67;;
7523;SDS011;3803;51.666;7.630;2023-11-19T01:55:53;4.40;;;2.97;;
7523;SDS011;3803;51.666;7.630;2023-11-19T01:56:17;4.90;;;3.42;;
7523;SDS011;3803;51.666;7.630;2023-11-19T01:56:38;5.53;;;3.63;;
7523;SDS011;3803;51.666;7.630;2023-11-19T01:57:04;4.70;;;3.10;;
7523;SDS011;3803;51.666;7.630;2023-11-19T01:57:25;4.95;;;3.10;;
7523;SDS011;3803;51.666;7.630;2023-11-19T01:57:46;7.00;;;3.40;;
7523;SDS011;3803;51.666;7.630;2023-11-19T01:58:09;9.02;;;3.50;;
7523;SDS011;3803;51.666;7.630;2023-11-19T01:58:30;8.95;;;3.63;;
7523;SDS011;3803;51.666;7.630;2023-11-19T01:58:51;8.48;;;3.70;;
7523;SDS011;3803;51.666;7.630;2023-11-19T01:59:14;5.85;;;3.50;;
7523;SDS011;3803;51.666;7.630;2023-11-19T01:59:36;5.47;;;3.28;;
7523;SDS011;3803;51.666;7.630;2023-11-19T01:59:58;4.32;;;3.45;;
7523;SDS011;3803;51.666;7.630;2023-11-19T02:00:19;5.20;;;3.70;;
7523;SDS011;3803;51.666;7.630;2023-11-19T02:00:40;4.90;;;3.67;;
7523;SDS011;3803;51.666;7.630;2023-11-19T02:01:02;4.28;;;3.40;;
7523;SDS011;3803;51.666;7.630;2023-11-19T02:01:24;4.53;;;3.33;;
7523;SDS011;3803;51.666;7.630;2023-11-19T02:01:45;4.63;;;3.30;;
7523;SDS011;3803;51.666;7.630;2023-11-19T02:02:05;4.60;;;3.22;;
7523;SDS011;3803;51.666;7.630;2023-11-19T02:02:26;4.03;;;3.13;;
7523;SDS011;3803;51.666;7.630;2023-11-19T02:02:47;4.00;;;3.30;;
7523;SDS011;3803;51.666;7.630;2023-11-19T02:03:09;3.60;;;3.13;;
7523;SDS011;3803;51.666;7.630;2023-11-19T02:03:31;4.57;;;3.25;;
7523;SDS011;3803;51.666;7.630;2023-11-19T02:03:53;4.63;;;3.10;;
7523;SDS011;3803;51.666;7.630;2023-11-19T02:04:13;5.60;;;3.57;;
7523;SDS011;3803;51.666;7.630;2023-11-19T02:04:34;4.88;;;3.47;;
7523;SDS011;3803;51.666;7.630;2023-11-19T02:04:55;4.90;;;3.70;;
7523;SDS011;3803;51.666;7.630;2023-11-19T02:05:17;4.07;;;3.47;;
7523;SDS011;3803;51.666;7.630;2023-11-19T02:05:38;4.55;;;3.72;;
7523;SDS011;3803;51.666;7.630;2023-11-19T02:06:00;4.63;;;3.63;;
7523;SDS011;3803;51.666;7.630;2023-11-19T02:06:21;5.82;;;3.80;;
7523;SDS011;3803;51.666;7.630;2023-11-19T02:06:42;5.72;;;3.63;;
7523;SDS011;3803;51.666;7.630;2023-11-19T02:07:03;6.35;;;3.78;;
7523;SDS011;3803;51.666;7.630;2023-11-19T02:07:24;4.97;;;3.50;;
7523;SDS011;3803;51.666;7.630;2023-11-19T02:07:46;6.32;;;3.50;;
7523;SDS011;3803;51.666;7.630;2023-11-19T02:08:07;5.75;;;3.33;;
7523;SDS011;3803;51.666;7.630;2023-11-19T02:08:28;5.97;;;3.28;;
7523;SDS011;3803;51.666;7.630;2023-11-19T02:08:49;4.10;;;3.10;;
7523;SDS011;3803;51.666;7.630;2023-11-19T02:09:10;3.90;;;3.13;;
7523;SDS011;3803;51.666;7.630;2023-11-19T02:09:31;4.20;;;3.30;;
7523;SDS011;3803;51.666;7.630;2023-11-19T02:09:51;4.50;;;3.45;;
7523;SDS011;3803;51.666;7.630;2023-11-19T02:10:12;4.53;;;3.40;;
7523;SDS011;3803;51.666;7.630;2023-11-19T02:10:35;4.20;;;3.25;;
7523;SDS011;3803;51.666;7.630;2023-11-19T02:10:56;5.40;;;3.22;;
7523;SDS011;3803;51.666;7.630;2023-11-19T02:11:18;5.38;;;3.10;;
7523;SDS011;3803;51.666;7.630;2023-11-19T02:11:41;4.90;;;3.05;;
7523;SDS011;3803;51.666;7.630;2023-11-19T02:12:02;3.80;;;2.90;;
7523;SDS011;3803;51.666;7.630;2023-11-19T02:12:23;3.33;;;2.78;;
7523;SDS011;3803;51.666;7.630;2023-11-19T02:12:43;3.63;;;2.80;;
7523;SDS011;3803;51.666;7.630;2023-11-19T02:13:05;3.90;;;2.85;;
7523;SDS011;3803;51.666;7.630;2023-11-19T02:13:27;4.07;;;3.20;;
7523;SDS011;3803;51.666;7.630;2023-11-19T02:13:49;4.03;;;3.30;;
7523;SDS011;3803;51.666;7.630;2023-11-19T02:14:09;4.70;;;3.60;;
7523;SDS011;3803;51.666;7.630;2023-11-19T02:14:31;4.93;;;3.53;;
7523;SDS011;3803;51.666;7.630;2023-11-19T02:14:52;4.90;;;3.50;;
7523;SDS011;3803;51.666;7.630;2023-11-19T02:15:13;4.60;;;3.10;;
7523;SDS011;3803;51.666;7.630;2023-11-19T02:15:34;3.80;;;3.05;;
7523;SDS011;3803;51.666;7.630;2023-11-19T02:15:54;3.72;;;2.80;;
7523;SDS011;3803;51.666;7.630;2023-11-19T02:16:15;3.85;;;3.00;;
7523;SDS011;3803;51.666;7.630;2023-11-19T02:16:37;4.40;;;3.17;;
7523;SDS011;3803;51.666;7.630;2023-11-19T02:16:58;4.47;;;3.10;;
7523;SDS011;3803;51.666;7.630;2023-11-19T02:17:28;5.20;;;3.60;;
7523;SDS011;3803;51.666;7.630;2023-11-19T02:17:51;5.57;;;3.65;;
7523;SDS011;3803;51.666;7.630;2023-11-19T02:18:40;5.20;;;3.30;;
7523;SDS011;3803;51.666;7.630;2023-11-19T02:19:01;4.68;;;3.20;;
7523;SDS011;3803;51.666;7.630;2023-11-19T02:19:22;4.85;;;3.25;;
7523;SDS011;3803;51.666;7.630;2023-11-19T02:19:43;4.78;;;3.15;;
7523;SDS011;3803;51.666;7.630;2023-11-19T02:20:04;5.00;;;3.10;;
7523;SDS011;3803;51.666;7.630;2023-11-19T02:20:29;4.50;;;3.22;;
7523;SDS011;3803;51.666;7.630;2023-11-19T02:20:50;3.97;;;3.13;;
7523;SDS011;3803;51.666;7.630;2023-11-19T02:21:11;3.53;;;2.92;;
7523;SDS011;3803;51.666;7.630;2023-11-19T02:21:35;3.75;;;2.90;;
7523;SDS011;3803;51.666;7.630;2023-11-19T02:21:55;4.60;;;2.90;;
7523;SDS011;3803;51.666;7.630;2023-11-19T02:22:16;5.47;;;3.28;;
7523;SDS011;3803;51.666;7.630;2023-11-19T02:22:37;5.40;;;3.20;;
7523;SDS011;3803;51.666;7.630;2023-11-19T02:22:57;4.05;;;2.97;;
7523;SDS011;3803;51.666;7.630;2023-11-19T02:23:18;3.37;;;2.77;;
7523;SDS011;3803;51.666;7.630;2023-11-19T02:23:40;3.90;;;2.85;;
7523;SDS011;3803;51.666;7.630;2023-11-19T02:24:05;3.72;;;2.80;;
7523;SDS011;3803;51.666;7.630;2023-11-19T02:24:28;3.35;;;2.75;;
7523;SDS011;3803;51.666;7.630;2023-11-19T02:24:51;5.70;;;2.80;;
7523;SDS011;3803;51.666;7.630;2023-11-19T02:25:22;7.20;;;2.60;;
7523;SDS011;3803;51.666;7.630;2023-11-19T02:25:54;5.45;;;2.80;;
7523;SDS011;3803;51.666;7.630;2023-11-19T02:26:32;3.78;;;2.83;;
7523;SDS011;3803;51.666;7.630;2023-11-19T02:27:05;3.45;;;2.80;;
7523;SDS011;3803;51.666;7.630;2023-11-19T02:28:02;3.10;;;2.42;;
7523;SDS011;3803;51.666;7.630;2023-11-19T02:28:25;2.33;;;2.10;;
7523;SDS011;3803;51.666;7.630;2023-11-19T02:28:46;2.40;;;2.03;;
7523;SDS011;3803;51.666;7.630;2023-11-19T02:29:07;3.10;;;2.20;;
7523;SDS011;3803;51.666;7.630;2023-11-19T02:29:28;3.70;;;2.47;;
7523;SDS011;3803;51.666;7.630;2023-11-19T02:29:48;4.00;;;2.47;;
7523;SDS011;3803;51.666;7.630;2023-11-19T02:30:10;3.70;;;2.30;;
7523;SDS011;3803;51.666;7.630;2023-11-19T02:30:31;5.13;;;2.38;;
7523;SDS011;3803;51.666;7.630;2023-11-19T02:30:52;5.10;;;2.50;;